DXXX/LFW METAR and TAF weather

Enter ICAO airport designator
Station Type Date Time Source
DXXX METAR 2019/02/16 03:00 UTC NOAA

DXXX 160300Z 00000KT 8000 FEW012 27/26 Q1011 NOSIG


Station Type Date Time Source
DXXX Decoded METAR 2019/02/16 03:00 UTC NOAA

Lome, Togo (DXXX) 06-10N 001-15E 25M
Feb 15, 2019 - 10:00 PM EST / 2019.02.16 0300 UTC
Wind: Calm:0
Visibility: 4 mile(s):0
Sky conditions: mostly clear
Temperature: 80 F (27 C)
Dew Point: 78 F (26 C)
Relative Humidity: 94%
Pressure (altimeter): 29.85 in. Hg (1011 hPa)
ob: DXXX 160300Z 00000KT 8000 FEW012 27/26 Q1011 NOSIG
cycle: 3

Station Type Date Time Source
DXXX TAF 2019/02/15 18:21 UTC NOAA

TAF DXXX 151700Z 1518/1624 18010KT 8000 FEW013
BECMG 1523/1601 VRB05KT
TEMPO 1605/1608 4000 BR
BECMG 1610/1612 18010KT


Example: see airport list